Airfield :
LOGIN :

Register | Disclaimer

   EN    FR    IT 

 










Legend :    VFR   Marginal VFR   IFR   Intensive IFR   Very Intensive IFR
Visi :
Ceiling :
>= 8 km
>= 3000ft
5 to 8 km
1000 to 3000 ft
1500m to 5 km
500 to 1000 ft
800 to 1500m
200 to 500 ft
< 800m
< 200 ft
Symbols :   Thunderstorms  Fog  Heavy snow  Heavy precipitations  Wind > 20 kt
SIGMETs :     Misc.  Thunderstorms  Icing  Turbulence  Mountain Waves  Volcanic Ashes






- Airport Elevation : 135 ft
- IATA code : EDI


EGPH - Edinburgh

CURRENT METAR :
  • 141320Z 26013KT 9999 SCT032 BKN044 17/09 Q1013

EXPIRED METARs :
  • 141250Z 26010KT 9999 SCT031 18/10 Q1013
  • 141220Z 26010KT 230V300 9999 BKN036 16/10 Q1014
  • 141150Z 26011KT 9999 SCT030 BKN041 16/09 Q1014
  • 141120Z 27008KT 9999 BKN029 16/10 Q1014
  • 141050Z 27008KT 240V310 9999 SCT037 17/10 Q1014

TAF TAF EGPH
Valid from the 14 at 12:00 until the 15 at 12:00 UTC


141059Z 1412/1512 26009KT 9999 SCT035
PROB30
TEMPO 1418/1424 7000 -RADZ BKN010
TEMPO 1500/1512 7000 -RADZ BKN010
PROB40
TEMPO 1500/1512 3000 RADZ BKN007
ATIS : +44 131 339 2823



MET'MAP, your aeronautical weather chart ! - Copyright ORBIFLY December 2007 - Disclaimer

ORBIFLY MET'MAP TEAM :

Programming & Development : Alexandra Zaïnal
Concept & original design : Baudouin d'Aumeries
Assistance for programming : Marc-Olivier Méhu
Technical & hardware support : Manuel Goepfert

Contact : metmap@orbifly.com




SOURCES & CREDITS :

   NOAA